KLAS/LAS METAR and TAF weather

Enter ICAO airport designator
Station Type Date Time Source
KLAS METAR 2022/09/26 08:56 UTC NOAA

KLAS 260856Z 17004KT 10SM CLR 23/M04 A3002 RMK AO2 SLP139 T02331039 55001 $


Station Type Date Time Source
KLAS Decoded METAR 2022/09/26 08:56 UTC NOAA

MCCARRAN INTERNATIONAL AIRPORT , NV, United States (KLAS) 36-07N 115-16W 636M
Sep 26, 2022 - 04:56 AM EDT / 2022.09.26 0856 UTC
Wind: from the S (170 degrees) at 5 MPH (4 KT):0
Visibility: 10 mile(s):0
Sky conditions: clear
Temperature: 73.9 F (23.3 C)
Dew Point: 25.0 F (-3.9 C)
Relative Humidity: 16%
Pressure (altimeter): 30.02 in. Hg (1016 hPa)
Pressure tendency: 0.00 inches (0.1 hPa) lower than three hours ago
ob: KLAS 260856Z 17004KT 10SM CLR 23/M04 A3002 RMK AO2 SLP139 T02331039 55001
cycle: 9

Station Type Date Time Source
KLAS TAF 2022/09/26 09:51 UTC NOAA

TAF
AMD KLAS 260848Z 2609/2712 24006KT P6SM SKC
FM261700 05008KT P6SM FEW250
FM262300 12008KT P6SM FEW250
FM270400 22007KT P6SM SKC

Example: see airport list